sensor_id;sensor_type;location;lat;lon;timestamp;temperature;humidity
770;DHT22;368;48.698;9.116;2022-09-09T00:00:19;12.30;99.90
770;DHT22;368;48.698;9.116;2022-09-09T00:02:53;12.50;99.90
770;DHT22;368;48.698;9.116;2022-09-09T00:05:28;12.40;99.90
770;DHT22;368;48.698;9.116;2022-09-09T00:07:59;12.80;99.90
770;DHT22;368;48.698;9.116;2022-09-09T00:10:33;12.70;99.90
770;DHT22;368;48.698;9.116;2022-09-09T00:13:06;12.70;99.90
770;DHT22;368;48.698;9.116;2022-09-09T00:15:38;12.80;99.90
770;DHT22;368;48.698;9.116;2022-09-09T00:18:14;13.00;99.90
770;DHT22;368;48.698;9.116;2022-09-09T00:20:46;13.00;99.90
770;DHT22;368;48.698;9.116;2022-09-09T00:23:20;13.00;99.90
770;DHT22;368;48.698;9.116;2022-09-09T00:25:58;13.20;99.90
770;DHT22;368;48.698;9.116;2022-09-09T00:28:27;13.10;99.90
770;DHT22;368;48.698;9.116;2022-09-09T00:30:59;13.30;99.90
770;DHT22;368;48.698;9.116;2022-09-09T00:33:27;13.40;99.90
770;DHT22;368;48.698;9.116;2022-09-09T00:35:57;13.70;99.90
770;DHT22;368;48.698;9.116;2022-09-09T00:38:28;13.80;99.90
770;DHT22;368;48.698;9.116;2022-09-09T00:41:03;13.90;99.90
770;DHT22;368;48.698;9.116;2022-09-09T00:43:35;13.80;99.90
770;DHT22;368;48.698;9.116;2022-09-09T00:46:21;13.90;99.90
770;DHT22;368;48.698;9.116;2022-09-09T00:48:54;13.70;99.90
770;DHT22;368;48.698;9.116;2022-09-09T00:51:30;13.80;99.90
770;DHT22;368;48.698;9.116;2022-09-09T00:54:14;13.70;99.90
770;DHT22;368;48.698;9.116;2022-09-09T00:56:52;14.00;99.90
770;DHT22;368;48.698;9.116;2022-09-09T00:59:28;14.10;99.90
770;DHT22;368;48.698;9.116;2022-09-09T01:01:58;14.20;99.90
770;DHT22;368;48.698;9.116;2022-09-09T01:04:29;14.10;99.90
770;DHT22;368;48.698;9.116;2022-09-09T01:07:05;14.10;99.90
770;DHT22;368;48.698;9.116;2022-09-09T01:09:45;13.90;99.90
770;DHT22;368;48.698;9.116;2022-09-09T01:12:24;13.70;99.90
770;DHT22;368;48.698;9.116;2022-09-09T01:14:57;13.80;99.90
770;DHT22;368;48.698;9.116;2022-09-09T01:17:31;13.90;99.90
770;DHT22;368;48.698;9.116;2022-09-09T01:20:06;13.90;99.90
770;DHT22;368;48.698;9.116;2022-09-09T01:22:39;13.60;99.90
770;DHT22;368;48.698;9.116;2022-09-09T01:25:22;13.60;99.90
770;DHT22;368;48.698;9.116;2022-09-09T01:27:52;13.40;99.90
770;DHT22;368;48.698;9.116;2022-09-09T01:30:19;13.60;99.90
770;DHT22;368;48.698;9.116;2022-09-09T01:32:49;13.70;99.90
770;DHT22;368;48.698;9.116;2022-09-09T01:35:28;13.40;99.90
770;DHT22;368;48.698;9.116;2022-09-09T01:37:56;13.50;99.90
770;DHT22;368;48.698;9.116;2022-09-09T01:40:23;13.30;99.90
770;DHT22;368;48.698;9.116;2022-09-09T01:42:52;13.10;99.90
770;DHT22;368;48.698;9.116;2022-09-09T01:45:20;13.20;99.90
770;DHT22;368;48.698;9.116;2022-09-09T01:47:48;13.00;99.90
770;DHT22;368;48.698;9.116;2022-09-09T01:50:16;13.10;99.90
770;DHT22;368;48.698;9.116;2022-09-09T01:52:44;13.00;99.90
770;DHT22;368;48.698;9.116;2022-09-09T01:55:12;13.00;99.90
770;DHT22;368;48.698;9.116;2022-09-09T01:57:46;13.20;99.90
770;DHT22;368;48.698;9.116;2022-09-09T02:00:18;13.00;99.90
770;DHT22;368;48.698;9.116;2022-09-09T02:02:52;13.40;99.90
770;DHT22;368;48.698;9.116;2022-09-09T02:05:30;13.10;99.90
770;DHT22;368;48.698;9.116;2022-09-09T02:08:05;13.00;99.90
770;DHT22;368;48.698;9.116;2022-09-09T02:10:36;12.90;99.90
770;DHT22;368;48.698;9.116;2022-09-09T02:13:07;13.00;99.90
770;DHT22;368;48.698;9.116;2022-09-09T02:15:43;12.80;99.90
770;DHT22;368;48.698;9.116;2022-09-09T02:18:13;12.70;99.90
770;DHT22;368;48.698;9.116;2022-09-09T02:20:43;12.40;99.90
770;DHT22;368;48.698;9.116;2022-09-09T02:23:12;12.30;99.90
770;DHT22;368;48.698;9.116;2022-09-09T02:25:40;12.10;99.90
770;DHT22;368;48.698;9.116;2022-09-09T02:28:09;12.20;99.90
770;DHT22;368;48.698;9.116;2022-09-09T02:30:40;12.40;99.90
770;DHT22;368;48.698;9.116;2022-09-09T02:33:09;12.30;99.90
770;DHT22;368;48.698;9.116;2022-09-09T02:35:39;12.40;99.90
770;DHT22;368;48.698;9.116;2022-09-09T02:38:09;12.20;99.90
770;DHT22;368;48.698;9.116;2022-09-09T02:40:37;12.40;99.90
770;DHT22;368;48.698;9.116;2022-09-09T02:43:04;12.30;99.90
770;DHT22;368;48.698;9.116;2022-09-09T02:45:38;12.30;99.90
770;DHT22;368;48.698;9.116;2022-09-09T02:48:14;12.30;99.90
770;DHT22;368;48.698;9.116;2022-09-09T02:50:52;12.20;99.90
770;DHT22;368;48.698;9.116;2022-09-09T02:53:23;12.30;99.90
770;DHT22;368;48.698;9.116;2022-09-09T02:55:54;11.90;99.90
770;DHT22;368;48.698;9.116;2022-09-09T02:58:23;11.90;99.90
770;DHT22;368;48.698;9.116;2022-09-09T03:00:51;12.10;99.90
770;DHT22;368;48.698;9.116;2022-09-09T03:03:19;11.80;99.90
770;DHT22;368;48.698;9.116;2022-09-09T03:05:47;11.90;99.90
770;DHT22;368;48.698;9.116;2022-09-09T03:08:15;12.00;99.90
770;DHT22;368;48.698;9.116;2022-09-09T03:10:42;12.20;99.90
770;DHT22;368;48.698;9.116;2022-09-09T03:13:09;12.30;99.90
770;DHT22;368;48.698;9.116;2022-09-09T03:15:38;12.50;99.90
770;DHT22;368;48.698;9.116;2022-09-09T03:18:05;12.20;99.90
770;DHT22;368;48.698;9.116;2022-09-09T03:20:33;12.50;99.90
770;DHT22;368;48.698;9.116;2022-09-09T03:23:00;12.30;99.90
770;DHT22;368;48.698;9.116;2022-09-09T03:25:28;12.30;99.90
770;DHT22;368;48.698;9.116;2022-09-09T03:27:55;12.10;99.90
770;DHT22;368;48.698;9.116;2022-09-09T03:30:23;12.30;99.90
770;DHT22;368;48.698;9.116;2022-09-09T03:32:51;12.20;99.90
770;DHT22;368;48.698;9.116;2022-09-09T03:35:18;12.30;99.90
770;DHT22;368;48.698;9.116;2022-09-09T03:37:46;12.40;99.90
770;DHT22;368;48.698;9.116;2022-09-09T03:40:14;12.40;99.90
770;DHT22;368;48.698;9.116;2022-09-09T03:42:40;11.90;99.90
770;DHT22;368;48.698;9.116;2022-09-09T03:45:09;12.10;99.90
770;DHT22;368;48.698;9.116;2022-09-09T03:47:36;12.20;99.90
770;DHT22;368;48.698;9.116;2022-09-09T03:50:04;12.30;99.90
770;DHT22;368;48.698;9.116;2022-09-09T03:52:35;12.50;99.90
770;DHT22;368;48.698;9.116;2022-09-09T03:55:03;12.50;99.90
770;DHT22;368;48.698;9.116;2022-09-09T03:57:30;12.90;99.90
770;DHT22;368;48.698;9.116;2022-09-09T03:59:59;12.80;99.90
770;DHT22;368;48.698;9.116;2022-09-09T04:02:26;13.00;99.90
770;DHT22;368;48.698;9.116;2022-09-09T04:04:53;12.80;99.90
770;DHT22;368;48.698;9.116;2022-09-09T04:07:20;12.40;99.90
770;DHT22;368;48.698;9.116;2022-09-09T04:09:46;12.40;99.90
770;DHT22;368;48.698;9.116;2022-09-09T04:12:15;12.30;99.90
770;DHT22;368;48.698;9.116;2022-09-09T04:14:43;12.40;99.90
770;DHT22;368;48.698;9.116;2022-09-09T04:17:10;12.50;99.90
770;DHT22;368;48.698;9.116;2022-09-09T04:19:36;12.80;99.90
770;DHT22;368;48.698;9.116;2022-09-09T04:22:03;12.90;99.90
770;DHT22;368;48.698;9.116;2022-09-09T04:24:30;13.10;99.90
770;DHT22;368;48.698;9.116;2022-09-09T04:26:57;12.90;99.90
770;DHT22;368;48.698;9.116;2022-09-09T04:29:25;13.20;99.90
770;DHT22;368;48.698;9.116;2022-09-09T04:31:51;13.00;99.90
770;DHT22;368;48.698;9.116;2022-09-09T04:34:18;13.20;99.90
770;DHT22;368;48.698;9.116;2022-09-09T04:36:45;13.40;99.90
770;DHT22;368;48.698;9.116;2022-09-09T04:39:12;13.20;99.90
770;DHT22;368;48.698;9.116;2022-09-09T04:41:38;13.40;99.90
770;DHT22;368;48.698;9.116;2022-09-09T04:44:05;13.40;99.90
770;DHT22;368;48.698;9.116;2022-09-09T04:46:33;13.30;99.90
770;DHT22;368;48.698;9.116;2022-09-09T04:49:00;13.30;99.90
770;DHT22;368;48.698;9.116;2022-09-09T04:51:27;13.40;99.90
770;DHT22;368;48.698;9.116;2022-09-09T04:53:56;13.50;99.90
770;DHT22;368;48.698;9.116;2022-09-09T04:56:23;13.50;99.90
770;DHT22;368;48.698;9.116;2022-09-09T04:58:52;13.60;99.90
770;DHT22;368;48.698;9.116;2022-09-09T05:01:20;13.40;99.90
770;DHT22;368;48.698;9.116;2022-09-09T05:03:50;13.40;99.90
770;DHT22;368;48.698;9.116;2022-09-09T05:06:18;13.20;99.90
770;DHT22;368;48.698;9.116;2022-09-09T05:08:45;13.10;99.90
770;DHT22;368;48.698;9.116;2022-09-09T05:11:14;13.30;99.90
770;DHT22;368;48.698;9.116;2022-09-09T05:13:42;13.10;99.90
770;DHT22;368;48.698;9.116;2022-09-09T05:16:09;13.30;99.90
770;DHT22;368;48.698;9.116;2022-09-09T05:18:37;13.40;99.90
770;DHT22;368;48.698;9.116;2022-09-09T05:21:05;13.40;99.90
770;DHT22;368;48.698;9.116;2022-09-09T05:23:32;13.40;99.90
770;DHT22;368;48.698;9.116;2022-09-09T05:25:59;13.70;99.90
770;DHT22;368;48.698;9.116;2022-09-09T05:28:27;13.80;99.90
770;DHT22;368;48.698;9.116;2022-09-09T05:30:58;13.50;99.90
770;DHT22;368;48.698;9.116;2022-09-09T05:33:26;13.90;99.90
770;DHT22;368;48.698;9.116;2022-09-09T05:35:57;13.70;99.90
770;DHT22;368;48.698;9.116;2022-09-09T05:38:26;13.80;99.90
770;DHT22;368;48.698;9.116;2022-09-09T05:40:53;13.80;99.90
770;DHT22;368;48.698;9.116;2022-09-09T05:43:20;13.80;99.90
770;DHT22;368;48.698;9.116;2022-09-09T05:45:47;14.30;99.90
770;DHT22;368;48.698;9.116;2022-09-09T05:48:14;14.10;99.90
770;DHT22;368;48.698;9.116;2022-09-09T05:50:41;14.30;99.90
770;DHT22;368;48.698;9.116;2022-09-09T05:53:08;14.40;99.90
770;DHT22;368;48.698;9.116;2022-09-09T05:55:37;14.40;99.90
770;DHT22;368;48.698;9.116;2022-09-09T05:58:03;14.50;99.90
770;DHT22;368;48.698;9.116;2022-09-09T06:00:30;14.50;99.90
770;DHT22;368;48.698;9.116;2022-09-09T06:02:57;14.60;99.90
770;DHT22;368;48.698;9.116;2022-09-09T06:05:24;14.50;99.90
770;DHT22;368;48.698;9.116;2022-09-09T06:07:53;14.50;99.90
770;DHT22;368;48.698;9.116;2022-09-09T06:10:21;14.50;99.90
770;DHT22;368;48.698;9.116;2022-09-09T06:12:52;14.70;99.90
770;DHT22;368;48.698;9.116;2022-09-09T06:15:19;14.70;99.90
770;DHT22;368;48.698;9.116;2022-09-09T06:17:46;14.90;99.90
770;DHT22;368;48.698;9.116;2022-09-09T06:20:14;15.00;99.90
770;DHT22;368;48.698;9.116;2022-09-09T06:22:41;14.90;99.90
770;DHT22;368;48.698;9.116;2022-09-09T06:25:08;15.00;99.90
770;DHT22;368;48.698;9.116;2022-09-09T06:27:36;15.10;99.90
770;DHT22;368;48.698;9.116;2022-09-09T06:30:05;14.90;99.90
770;DHT22;368;48.698;9.116;2022-09-09T06:32:33;15.10;99.90
770;DHT22;368;48.698;9.116;2022-09-09T06:35:02;15.30;99.90
770;DHT22;368;48.698;9.116;2022-09-09T06:37:29;15.10;99.90
770;DHT22;368;48.698;9.116;2022-09-09T06:39:55;15.40;99.90
770;DHT22;368;48.698;9.116;2022-09-09T06:42:22;15.60;99.90
770;DHT22;368;48.698;9.116;2022-09-09T06:44:49;15.80;99.90
770;DHT22;368;48.698;9.116;2022-09-09T06:47:17;15.80;99.90
770;DHT22;368;48.698;9.116;2022-09-09T06:49:44;16.00;99.90
770;DHT22;368;48.698;9.116;2022-09-09T06:52:10;16.20;99.90
770;DHT22;368;48.698;9.116;2022-09-09T06:54:37;16.20;99.90
770;DHT22;368;48.698;9.116;2022-09-09T06:57:04;16.20;99.90
770;DHT22;368;48.698;9.116;2022-09-09T06:59:32;16.40;99.90
770;DHT22;368;48.698;9.116;2022-09-09T07:01:59;16.60;99.90
770;DHT22;368;48.698;9.116;2022-09-09T07:04:28;16.80;99.90
770;DHT22;368;48.698;9.116;2022-09-09T07:06:54;16.80;99.90
770;DHT22;368;48.698;9.116;2022-09-09T07:09:22;16.90;99.90
770;DHT22;368;48.698;9.116;2022-09-09T07:11:50;17.00;99.90
770;DHT22;368;48.698;9.116;2022-09-09T07:14:18;17.00;99.90
770;DHT22;368;48.698;9.116;2022-09-09T07:16:46;17.10;99.90
770;DHT22;368;48.698;9.116;2022-09-09T07:19:14;17.20;99.90
770;DHT22;368;48.698;9.116;2022-09-09T07:21:42;17.30;99.90
770;DHT22;368;48.698;9.116;2022-09-09T07:24:09;17.40;99.90
770;DHT22;368;48.698;9.116;2022-09-09T07:26:37;17.60;99.90
770;DHT22;368;48.698;9.116;2022-09-09T07:29:05;17.60;99.90
770;DHT22;368;48.698;9.116;2022-09-09T07:31:33;17.60;99.90
770;DHT22;368;48.698;9.116;2022-09-09T07:34:02;17.40;99.90
770;DHT22;368;48.698;9.116;2022-09-09T07:36:30;17.80;99.90
770;DHT22;368;48.698;9.116;2022-09-09T07:39:00;19.30;99.90
770;DHT22;368;48.698;9.116;2022-09-09T07:41:30;19.30;99.90
770;DHT22;368;48.698;9.116;2022-09-09T07:43:58;18.90;99.90
770;DHT22;368;48.698;9.116;2022-09-09T07:46:26;19.10;99.90
770;DHT22;368;48.698;9.116;2022-09-09T07:48:55;20.30;99.90
770;DHT22;368;48.698;9.116;2022-09-09T07:51:24;20.70;99.50
770;DHT22;368;48.698;9.116;2022-09-09T07:53:52;21.10;98.20
770;DHT22;368;48.698;9.116;2022-09-09T07:56:21;21.90;97.40
770;DHT22;368;48.698;9.116;2022-09-09T07:58:49;21.40;97.50
770;DHT22;368;48.698;9.116;2022-09-09T08:01:18;21.00;97.30
770;DHT22;368;48.698;9.116;2022-09-09T08:03:46;20.70;97.70
770;DHT22;368;48.698;9.116;2022-09-09T08:06:14;21.00;97.20
770;DHT22;368;48.698;9.116;2022-09-09T08:08:40;21.20;96.80
770;DHT22;368;48.698;9.116;2022-09-09T08:11:10;21.40;97.00
770;DHT22;368;48.698;9.116;2022-09-09T08:13:39;21.90;96.00
770;DHT22;368;48.698;9.116;2022-09-09T08:16:07;22.30;95.30
770;DHT22;368;48.698;9.116;2022-09-09T08:18:35;22.00;94.90
770;DHT22;368;48.698;9.116;2022-09-09T08:21:07;22.20;95.00
770;DHT22;368;48.698;9.116;2022-09-09T08:23:35;22.30;95.20
770;DHT22;368;48.698;9.116;2022-09-09T08:26:06;22.20;95.00
770;DHT22;368;48.698;9.116;2022-09-09T08:28:34;22.80;94.90
770;DHT22;368;48.698;9.116;2022-09-09T08:31:11;23.10;93.90
770;DHT22;368;48.698;9.116;2022-09-09T08:33:39;23.30;92.60
770;DHT22;368;48.698;9.116;2022-09-09T08:36:09;23.20;92.70
770;DHT22;368;48.698;9.116;2022-09-09T08:38:36;23.10;92.60
770;DHT22;368;48.698;9.116;2022-09-09T08:41:33;23.60;92.50
770;DHT22;368;48.698;9.116;2022-09-09T08:44:07;23.50;91.60
770;DHT22;368;48.698;9.116;2022-09-09T08:46:42;23.10;92.30
770;DHT22;368;48.698;9.116;2022-09-09T08:49:23;23.60;91.60
770;DHT22;368;48.698;9.116;2022-09-09T08:51:54;23.60;91.50
770;DHT22;368;48.698;9.116;2022-09-09T08:54:23;24.30;90.80
770;DHT22;368;48.698;9.116;2022-09-09T08:56:50;23.30;91.30
770;DHT22;368;48.698;9.116;2022-09-09T08:59:18;21.90;93.10
770;DHT22;368;48.698;9.116;2022-09-09T09:01:56;23.10;92.00
770;DHT22;368;48.698;9.116;2022-09-09T09:04:53;24.70;90.20
770;DHT22;368;48.698;9.116;2022-09-09T09:07:31;25.30;87.70
770;DHT22;368;48.698;9.116;2022-09-09T09:10:03;25.20;87.00
770;DHT22;368;48.698;9.116;2022-09-09T09:12:39;25.50;85.20
770;DHT22;368;48.698;9.116;2022-09-09T09:15:14;22.80;90.30
770;DHT22;368;48.698;9.116;2022-09-09T09:17:44;20.60;94.20
770;DHT22;368;48.698;9.116;2022-09-09T09:20:12;19.20;95.90
770;DHT22;368;48.698;9.116;2022-09-09T09:22:45;18.20;99.90
770;DHT22;368;48.698;9.116;2022-09-09T09:25:17;17.20;99.90
770;DHT22;368;48.698;9.116;2022-09-09T09:27:49;16.50;99.90
770;DHT22;368;48.698;9.116;2022-09-09T09:30:19;16.50;99.90
770;DHT22;368;48.698;9.116;2022-09-09T09:32:53;16.60;99.90
770;DHT22;368;48.698;9.116;2022-09-09T09:35:20;17.30;99.90
770;DHT22;368;48.698;9.116;2022-09-09T09:37:48;18.80;99.90
770;DHT22;368;48.698;9.116;2022-09-09T09:40:17;20.60;99.90
770;DHT22;368;48.698;9.116;2022-09-09T09:42:49;20.60;99.90
770;DHT22;368;48.698;9.116;2022-09-09T09:45:31;21.10;99.90
770;DHT22;368;48.698;9.116;2022-09-09T09:48:03;19.30;99.90
770;DHT22;368;48.698;9.116;2022-09-09T09:50:30;19.10;99.90
770;DHT22;368;48.698;9.116;2022-09-09T09:52:59;21.20;99.90
770;DHT22;368;48.698;9.116;2022-09-09T09:55:28;22.50;99.90
770;DHT22;368;48.698;9.116;2022-09-09T09:58:01;23.20;99.90
770;DHT22;368;48.698;9.116;2022-09-09T10:00:28;23.90;99.70
770;DHT22;368;48.698;9.116;2022-09-09T10:02:55;24.60;98.00
770;DHT22;368;48.698;9.116;2022-09-09T10:05:25;23.90;97.60
770;DHT22;368;48.698;9.116;2022-09-09T10:08:03;23.60;98.40
770;DHT22;368;48.698;9.116;2022-09-09T10:10:39;24.40;96.80
770;DHT22;368;48.698;9.116;2022-09-09T10:13:11;24.40;97.50
770;DHT22;368;48.698;9.116;2022-09-09T10:15:47;25.40;95.70
770;DHT22;368;48.698;9.116;2022-09-09T10:18:36;25.60;95.90
770;DHT22;368;48.698;9.116;2022-09-09T10:21:15;26.80;92.30
770;DHT22;368;48.698;9.116;2022-09-09T10:23:56;25.60;91.80
770;DHT22;368;48.698;9.116;2022-09-09T10:26:32;23.60;95.90
770;DHT22;368;48.698;9.116;2022-09-09T10:29:15;23.70;97.70
770;DHT22;368;48.698;9.116;2022-09-09T10:31:52;25.60;95.40
770;DHT22;368;48.698;9.116;2022-09-09T10:34:40;26.80;92.40
770;DHT22;368;48.698;9.116;2022-09-09T10:37:21;25.00;94.10
770;DHT22;368;48.698;9.116;2022-09-09T10:39:58;23.00;96.00
770;DHT22;368;48.698;9.116;2022-09-09T10:42:30;22.40;97.40
770;DHT22;368;48.698;9.116;2022-09-09T10:45:09;22.30;99.10
770;DHT22;368;48.698;9.116;2022-09-09T10:48:10;22.00;99.90
770;DHT22;368;48.698;9.116;2022-09-09T10:50:50;21.70;99.60
770;DHT22;368;48.698;9.116;2022-09-09T10:53:25;21.70;99.90
770;DHT22;368;48.698;9.116;2022-09-09T10:56:01;23.60;97.20
770;DHT22;368;48.698;9.116;2022-09-09T10:58:33;25.50;94.70
770;DHT22;368;48.698;9.116;2022-09-09T11:01:13;26.40;92.50
770;DHT22;368;48.698;9.116;2022-09-09T11:03:43;23.70;94.70
770;DHT22;368;48.698;9.116;2022-09-09T11:06:14;23.30;96.50
770;DHT22;368;48.698;9.116;2022-09-09T11:08:44;22.60;95.30
770;DHT22;368;48.698;9.116;2022-09-09T11:11:15;21.90;96.60
770;DHT22;368;48.698;9.116;2022-09-09T11:13:47;21.40;96.30
770;DHT22;368;48.698;9.116;2022-09-09T11:16:23;21.10;97.00
770;DHT22;368;48.698;9.116;2022-09-09T11:18:57;20.90;97.60
770;DHT22;368;48.698;9.116;2022-09-09T11:21:29;20.00;97.40
770;DHT22;368;48.698;9.116;2022-09-09T11:24:01;19.40;96.30
770;DHT22;368;48.698;9.116;2022-09-09T11:26:32;19.00;96.90
770;DHT22;368;48.698;9.116;2022-09-09T11:29:14;18.70;96.30
770;DHT22;368;48.698;9.116;2022-09-09T11:31:53;18.80;96.90
770;DHT22;368;48.698;9.116;2022-09-09T11:34:39;18.90;95.60
770;DHT22;368;48.698;9.116;2022-09-09T11:37:22;19.00;95.50
770;DHT22;368;48.698;9.116;2022-09-09T11:40:20;18.80;95.30
770;DHT22;368;48.698;9.116;2022-09-09T11:42:48;18.60;96.10
770;DHT22;368;48.698;9.116;2022-09-09T11:45:26;18.80;96.90
770;DHT22;368;48.698;9.116;2022-09-09T11:47:55;19.40;95.80
770;DHT22;368;48.698;9.116;2022-09-09T11:50:34;20.50;94.30
770;DHT22;368;48.698;9.116;2022-09-09T11:53:18;21.70;92.20
770;DHT22;368;48.698;9.116;2022-09-09T11:56:04;23.30;90.10
770;DHT22;368;48.698;9.116;2022-09-09T11:58:38;22.50;90.10
770;DHT22;368;48.698;9.116;2022-09-09T12:01:34;21.60;90.40
770;DHT22;368;48.698;9.116;2022-09-09T12:06:57;20.80;91.30
770;DHT22;368;48.698;9.116;2022-09-09T12:09:44;22.60;90.20
770;DHT22;368;48.698;9.116;2022-09-09T12:12:28;22.70;87.00
770;DHT22;368;48.698;9.116;2022-09-09T12:15:01;24.10;86.00
770;DHT22;368;48.698;9.116;2022-09-09T12:17:30;26.70;79.30
770;DHT22;368;48.698;9.116;2022-09-09T12:20:06;27.60;72.10
770;DHT22;368;48.698;9.116;2022-09-09T12:22:41;27.70;71.10
770;DHT22;368;48.698;9.116;2022-09-09T12:25:19;27.30;71.30
770;DHT22;368;48.698;9.116;2022-09-09T12:28:02;28.80;70.60
770;DHT22;368;48.698;9.116;2022-09-09T12:30:34;27.90;67.80
770;DHT22;368;48.698;9.116;2022-09-09T12:33:02;26.10;71.80
770;DHT22;368;48.698;9.116;2022-09-09T12:35:34;26.60;70.20
770;DHT22;368;48.698;9.116;2022-09-09T12:38:02;25.90;69.40
770;DHT22;368;48.698;9.116;2022-09-09T12:40:34;23.80;74.70
770;DHT22;368;48.698;9.116;2022-09-09T12:43:17;22.50;79.80
770;DHT22;368;48.698;9.116;2022-09-09T12:45:45;22.20;82.70
770;DHT22;368;48.698;9.116;2022-09-09T12:48:12;24.20;79.90
770;DHT22;368;48.698;9.116;2022-09-09T12:50:45;24.00;79.00
770;DHT22;368;48.698;9.116;2022-09-09T12:53:16;24.00;81.30
770;DHT22;368;48.698;9.116;2022-09-09T12:55:50;23.20;80.60
770;DHT22;368;48.698;9.116;2022-09-09T12:58:19;22.20;83.10
770;DHT22;368;48.698;9.116;2022-09-09T13:00:49;21.50;85.10
770;DHT22;368;48.698;9.116;2022-09-09T13:03:19;21.20;87.80
770;DHT22;368;48.698;9.116;2022-09-09T13:05:47;20.90;87.70
770;DHT22;368;48.698;9.116;2022-09-09T13:08:14;21.20;88.60
770;DHT22;368;48.698;9.116;2022-09-09T13:10:48;22.00;86.50
770;DHT22;368;48.698;9.116;2022-09-09T13:13:23;21.60;83.70
770;DHT22;368;48.698;9.116;2022-09-09T13:15:52;21.20;84.10
770;DHT22;368;48.698;9.116;2022-09-09T13:18:22;23.20;81.80
770;DHT22;368;48.698;9.116;2022-09-09T13:20:50;25.60;74.70
770;DHT22;368;48.698;9.116;2022-09-09T13:23:20;26.10;71.60
770;DHT22;368;48.698;9.116;2022-09-09T13:25:54;26.10;69.70
770;DHT22;368;48.698;9.116;2022-09-09T13:28:25;26.80;68.70
770;DHT22;368;48.698;9.116;2022-09-09T13:30:59;26.40;68.70
770;DHT22;368;48.698;9.116;2022-09-09T13:33:32;26.40;67.50
770;DHT22;368;48.698;9.116;2022-09-09T13:36:01;26.20;67.10
770;DHT22;368;48.698;9.116;2022-09-09T13:38:31;25.70;68.90
770;DHT22;368;48.698;9.116;2022-09-09T13:40:59;23.80;73.50
770;DHT22;368;48.698;9.116;2022-09-09T13:43:34;23.00;77.70
770;DHT22;368;48.698;9.116;2022-09-09T13:46:04;24.50;77.50
770;DHT22;368;48.698;9.116;2022-09-09T13:48:31;26.60;71.70
770;DHT22;368;48.698;9.116;2022-09-09T13:51:00;27.70;68.30
770;DHT22;368;48.698;9.116;2022-09-09T13:53:28;28.10;67.10
770;DHT22;368;48.698;9.116;2022-09-09T13:55:56;29.60;63.50
770;DHT22;368;48.698;9.116;2022-09-09T13:58:23;28.30;65.30
770;DHT22;368;48.698;9.116;2022-09-09T14:00:52;26.70;67.60
770;DHT22;368;48.698;9.116;2022-09-09T14:03:20;26.60;65.70
770;DHT22;368;48.698;9.116;2022-09-09T14:05:47;27.20;65.80
770;DHT22;368;48.698;9.116;2022-09-09T14:08:25;27.70;63.70
770;DHT22;368;48.698;9.116;2022-09-09T14:10:53;28.20;60.90
770;DHT22;368;48.698;9.116;2022-09-09T14:13:24;27.40;60.40
770;DHT22;368;48.698;9.116;2022-09-09T14:15:53;26.90;63.60
770;DHT22;368;48.698;9.116;2022-09-09T14:18:20;26.00;63.90
770;DHT22;368;48.698;9.116;2022-09-09T14:20:47;24.20;67.40
770;DHT22;368;48.698;9.116;2022-09-09T14:23:16;24.10;70.30
770;DHT22;368;48.698;9.116;2022-09-09T14:25:44;25.90;64.10
770;DHT22;368;48.698;9.116;2022-09-09T14:28:13;26.70;63.30
770;DHT22;368;48.698;9.116;2022-09-09T14:30:41;26.50;62.40
770;DHT22;368;48.698;9.116;2022-09-09T14:33:12;26.30;60.90
770;DHT22;368;48.698;9.116;2022-09-09T14:35:39;26.00;61.50
770;DHT22;368;48.698;9.116;2022-09-09T14:38:06;25.80;60.40
770;DHT22;368;48.698;9.116;2022-09-09T14:40:34;26.40;61.40
770;DHT22;368;48.698;9.116;2022-09-09T14:43:01;26.40;60.40
770;DHT22;368;48.698;9.116;2022-09-09T14:45:28;26.80;58.80
770;DHT22;368;48.698;9.116;2022-09-09T14:47:55;26.40;59.70
770;DHT22;368;48.698;9.116;2022-09-09T14:50:24;26.30;59.20
770;DHT22;368;48.698;9.116;2022-09-09T14:52:51;25.70;59.80
770;DHT22;368;48.698;9.116;2022-09-09T14:55:18;26.50;59.60
770;DHT22;368;48.698;9.116;2022-09-09T14:57:46;25.90;59.40
770;DHT22;368;48.698;9.116;2022-09-09T15:00:13;25.50;60.00
770;DHT22;368;48.698;9.116;2022-09-09T15:02:40;25.60;60.70
770;DHT22;368;48.698;9.116;2022-09-09T15:05:07;25.60;60.80
770;DHT22;368;48.698;9.116;2022-09-09T15:07:35;25.50;60.60
770;DHT22;368;48.698;9.116;2022-09-09T15:10:04;25.00;61.80
770;DHT22;368;48.698;9.116;2022-09-09T15:12:32;23.80;64.30
770;DHT22;368;48.698;9.116;2022-09-09T15:15:01;24.10;64.70
770;DHT22;368;48.698;9.116;2022-09-09T15:17:27;24.20;64.60
770;DHT22;368;48.698;9.116;2022-09-09T15:19:54;25.70;63.00
770;DHT22;368;48.698;9.116;2022-09-09T15:22:21;26.00;61.80
770;DHT22;368;48.698;9.116;2022-09-09T15:24:51;26.90;60.60
770;DHT22;368;48.698;9.116;2022-09-09T15:27:17;26.00;61.80
770;DHT22;368;48.698;9.116;2022-09-09T15:29:44;26.30;61.20
770;DHT22;368;48.698;9.116;2022-09-09T15:32:12;25.70;62.00
770;DHT22;368;48.698;9.116;2022-09-09T15:34:39;24.70;64.80
770;DHT22;368;48.698;9.116;2022-09-09T15:37:05;23.00;66.20
770;DHT22;368;48.698;9.116;2022-09-09T15:39:33;22.20;68.90
770;DHT22;368;48.698;9.116;2022-09-09T15:42:01;21.50;71.20
770;DHT22;368;48.698;9.116;2022-09-09T15:44:28;21.00;72.00
770;DHT22;368;48.698;9.116;2022-09-09T15:46:54;20.60;73.10
770;DHT22;368;48.698;9.116;2022-09-09T15:49:23;20.40;73.30
770;DHT22;368;48.698;9.116;2022-09-09T15:51:52;20.30;73.50
770;DHT22;368;48.698;9.116;2022-09-09T15:54:20;20.20;74.40
770;DHT22;368;48.698;9.116;2022-09-09T15:56:51;20.10;73.90
770;DHT22;368;48.698;9.116;2022-09-09T15:59:19;20.00;74.80
770;DHT22;368;48.698;9.116;2022-09-09T16:01:46;20.00;75.20
770;DHT22;368;48.698;9.116;2022-09-09T16:04:15;19.90;75.40
770;DHT22;368;48.698;9.116;2022-09-09T16:06:48;19.90;76.10
770;DHT22;368;48.698;9.116;2022-09-09T16:09:15;19.80;76.60
770;DHT22;368;48.698;9.116;2022-09-09T16:11:42;19.80;77.10
770;DHT22;368;48.698;9.116;2022-09-09T16:14:09;19.80;77.10
770;DHT22;368;48.698;9.116;2022-09-09T16:16:37;19.70;78.00
770;DHT22;368;48.698;9.116;2022-09-09T16:19:06;19.80;78.20
770;DHT22;368;48.698;9.116;2022-09-09T16:21:36;19.70;78.40
770;DHT22;368;48.698;9.116;2022-09-09T16:24:06;19.70;78.30
770;DHT22;368;48.698;9.116;2022-09-09T16:26:34;19.60;78.20
770;DHT22;368;48.698;9.116;2022-09-09T16:29:02;19.70;78.50
770;DHT22;368;48.698;9.116;2022-09-09T16:31:29;19.70;78.30
770;DHT22;368;48.698;9.116;2022-09-09T16:33:58;19.60;78.60
770;DHT22;368;48.698;9.116;2022-09-09T16:36:27;19.60;78.30
770;DHT22;368;48.698;9.116;2022-09-09T16:38:56;19.70;79.30
770;DHT22;368;48.698;9.116;2022-09-09T16:41:24;19.70;79.80
770;DHT22;368;48.698;9.116;2022-09-09T16:43:52;19.40;82.40
770;DHT22;368;48.698;9.116;2022-09-09T16:46:20;19.40;83.70
770;DHT22;368;48.698;9.116;2022-09-09T16:48:48;19.10;85.50
770;DHT22;368;48.698;9.116;2022-09-09T16:51:17;19.10;85.40
770;DHT22;368;48.698;9.116;2022-09-09T16:53:45;19.20;84.60
770;DHT22;368;48.698;9.116;2022-09-09T16:56:15;19.10;86.20
770;DHT22;368;48.698;9.116;2022-09-09T16:58:42;18.90;86.20